MyTimes logo

TIMES

Webb Imagery

19/02/2011
Channel Challenge
550m Swim / 2.0km Run

(Click on competitor name to view personalised results)

Name
Race #
Category
Time
(h:mm:ss)
Avg Speed
km/hr
OAll
Place
Cat
Place
RHODES Jamie#213Senior Male0:14:26"10.6 " 11
WALPOLE Stuart#79Senior Male0:15:23"9.9 " 22
ROWE Mark#90Senior Male0:15:48"9.7 " 33
FYFE Geordie#124Senior Male0:16:06"9.5 " 44
SMITH Ryan#200Senior Male0:16:25"9.3 " 55
MCLEAN Sam#126Senior Male0:16:26"9.3 " 66
GUILLE Tim#2Senior Male0:16:32"9.3 " 77
AITKEN Holly#389Senior Female0:16:37"9.2 " 81
CHAPMAN Naish#174Senior Male0:17:06"8.9 " 98
FLEISNER Rob#661Male 50+0:17:12"8.9 " 101
WACHTER Aurel#66040-49 Male0:17:15"8.9 " 111
BENNETT James#766Junior Male0:17:17"8.9 " 121
SOMMERVILLE Barny#100Senior Male0:17:19"8.8 " 139
RAINEY Peter#66940-49 Male0:17:22"8.8 " 142
COOTE Millicent#470Junior Female0:17:39"8.7 " 151
BUTT Chloe#333Senior Female0:17:58"8.5 " 162
BREDIN Victor#36Senior Male0:17:59"8.5 " 1710
PLANT Luke#45Senior Male0:18:07"8.4 " 1811
DALLINGER Andrew#137Senior Male0:18:25"8.3 " 1912
BILL Greg#69340-49 Male0:18:32"8.3 " 203
BOND Marcus#52Senior Male0:18:37"8.2 " 2113
CONSTABLE Timothy#93Senior Male0:18:50"8.1 " 2214
PAGE Tiler#72140-49 Male0:18:55"8.1 " 234
HAWKING Shem#211Senior Male0:18:55"8.1 " 2415
MANTEIT Michael#695Junior Male0:18:56"8.1 " 252
KEAYS Matthews#168Senior Male0:19:03"8.0 " 2616
VOOUEY Jetkins#722Junior Male0:19:08"8.0 " 273
WILLIAMS Kellie#391Senior Female0:19:16"7.9 " 283
LANGLEY Mark#607Junior Male0:19:27"7.9 " 294
EVANS Brad#75640-49 Male0:19:29"7.9 " 305
TILLEY Justin#9Senior Male0:19:36"7.8 " 3117
DESSENT Tiger#63440-49 Male0:19:37"7.8 " 326
CORBETT Jim#64740-49 Male0:19:46"7.7 " 337
CROFT Greg#755Male 50+0:19:46"7.7 " 342
CROFT Ben#754Junior Male0:19:53"7.7 " 355
BUTLER Laura#456Junior Female0:19:55"7.7 " 362
CLINTON Bradley#169Senior Male0:19:59"7.7 " 3718
BATT Corey#175Senior Male0:20:07"7.6 " 3819
STOCK Adam#178Senior Male0:20:09"7.6 " 3920
WEBB Danni#479Senior Female0:20:21"7.5 " 404
MC HENRY David#248Senior Male0:20:26"7.5 " 4121
HUGHES Jed#95Senior Male0:20:27"7.5 " 4222
CHISHOLM Andy#66640-49 Male0:20:27"7.5 " 438
JACKMAN James#60Senior Male0:20:29"7.5 " 4423
FOSTER Luke#221Senior Male0:20:33"7.4 " 4524
MAMERS Chuck#127Senior Male0:20:34"7.4 " 4625
BUTLER Clare#457Junior Female0:20:38"7.4 " 473
MCCALL Rod#65540-49 Male0:20:39"7.4 " 489
MONAGHAN Matt#257Senior Male0:20:43"7.4 " 4926
HADLEY Alister#734Junior Male0:20:47"7.4 " 506
BIBBY Daniel#234Senior Male0:20:53"7.3 " 5127
HARRISON Hamish#233Senior Male0:20:55"7.3 " 5228
ELLIS Christophe#120Senior Male0:21:00"7.3 " 5329
DALLINGER Chris#125Senior Male0:21:01"7.3 " 5430
JOHNSON Glen#711Male 50+0:21:05"7.3 " 553
GROVES Tamara#415Junior Female0:21:06"7.3 " 564
GOUGH Charlee#359Junior Female0:21:07"7.2 " 575
SUNDERLAND Jarrod#141Senior Male0:21:12"7.2 " 5831
DRENNAN Amanda#442Senior Female0:21:24"7.1 " 595
BARNES John#642Male 50+0:21:29"7.1 " 604
WEIR Jake#91Senior Male0:21:30"7.1 " 6132
SPACKMAN David#88Senior Male0:21:33"7.1 " 6233
JAKOBI Dean#118Senior Male0:21:35"7.1 " 6334
FULTON Chris#62Senior Male0:21:36"7.1 " 6435
SHAW Ben#81Senior Male0:21:41"7.1 " 6536
FYFIELD Sally#354Junior Female0:21:41"7.1 " 666
KERDEL Sam#110Senior Male0:21:45"7.0 " 6737
YUSKO Bill#675Male 50+0:21:46"7.0 " 685
WILLIAMS Max#674Junior Male0:21:49"7.0 " 697
DRISCOLL Ben#89Senior Male0:21:50"7.0 " 7038
CARTER Lachlan#121Senior Male0:21:51"7.0 " 7139
CLOSE Jason#76740-49 Male0:21:51"7.0 " 7210
FALLOON Darren#61940-49 Male0:21:53"7.0 " 7311
HUGHES Bryn#667Junior Male0:21:59"7.0 " 748
TERLICH Chris#11Senior Male0:22:03"6.9 " 7540
LAMARO Damien#205Senior Male0:22:11"6.9 " 7641
TURNER Peter#753Male 50+0:22:14"6.9 " 776
MCCARROLL Matt#62440-49 Male0:22:23"6.8 " 7812
RASMUSSEN Luke#158Senior Male0:22:25"6.8 " 7942
CARSON Sarah#312Senior Female0:22:25"6.8 " 806
MORRISON Mark#72940-49 Male0:22:26"6.8 " 8113
DISTON Ashlee#435Junior Female0:22:28"6.8 " 827
BYRNE Stephen#765Male 50+0:22:30"6.8 " 837
CONNELL Michael#719Male 50+0:22:31"6.8 " 848
HELLEMA Joshua#5Senior Male0:22:32"6.8 " 8543
WILSON Robert#231Senior Male0:22:36"6.8 " 8644
GUPPY Sasha#472Junior Female0:22:36"6.8 " 878
BUCKERIDGE Scott#139Senior Male0:22:40"6.7 " 8845
TOMAS Jordan#649Junior Male0:22:41"6.7 " 899
VYVERBERG Adam#134Senior Male0:22:42"6.7 " 9046
MATTHEWS Dylan#73Senior Male0:22:43"6.7 " 9147
DAVIE Krystal#475Junior Female0:22:44"6.7 " 929
EDWARDS Molly#454Junior Female0:22:45"6.7 " 9310
VESSEY Glenn#66440-49 Male0:22:47"6.7 " 9414
HEINDRICKS Vaughn#241Senior Male0:22:50"6.7 " 9548
RAINEY Helen#402Senior Female0:22:50"6.7 " 967
BRADEN Mick#70440-49 Male0:22:50"6.7 " 9715
MATTHEWS Jack#75Senior Male0:22:51"6.7 " 9849
O'DONOHUE Jacob#702Junior Male0:22:56"6.7 " 9910
STINEAR Tim#76040-49 Male0:22:57"6.7 " 10016
BIBBY Anthony#243Senior Male0:22:58"6.7 " 10150
SAUTNER David#162Senior Male0:22:58"6.7 " 10251
MCKENZIE David#26Senior Male0:23:01"6.6 " 10352
MACKENZIE Thomas#43Senior Male0:23:03"6.6 " 10453
TURNER Georgia#476Junior Female0:23:04"6.6 " 10511
BROOMHALL Jason#149Senior Male0:23:09"6.6 " 10654
ANDERS Joel#160Senior Male0:23:14"6.6 " 10755
BLUNDY William#222Senior Male0:23:16"6.6 " 10856
ROBERTSON Dan#55Senior Male0:23:18"6.6 " 10957
HALL Daniel#153Senior Male0:23:21"6.6 " 11058
FREEMAN Edward#210Senior Male0:23:23"6.5 " 11159
KAYE-HELMOT Georgia#459Junior Female0:23:25"6.5 " 11212
POULTON Andrew#74740-49 Male0:23:25"6.5 " 11317
MC KENZIE Rodney#140Senior Male0:23:27"6.5 " 11460
DALVEAN Trenton#17Senior Male0:23:28"6.5 " 11561
BEECH Georgina#369Senior Female0:23:29"6.5 " 1168
CAPLE Alex#167Senior Male0:23:35"6.5 " 11762
LAMARO Christian#47Senior Male0:23:35"6.5 " 11863
BAGLEY Jarrod#179Senior Male0:23:35"6.5 " 11964
ANDREOLA Declan#731Junior Male0:23:36"6.5 " 12011
VAN DANTZIG Thomas#101Senior Male0:23:38"6.5 " 12165
SOHI Navraj#109Senior Male0:23:38"6.5 " 12266
CONNELL Chelsea#444Junior Female0:23:38"6.5 " 12313
RIELLY Debbie#48440-49 Female0:23:41"6.5 " 1241
WETTENHALL Georgie#433Senior Female0:23:43"6.5 " 1259
WEBBER Daniel#741Junior Male0:23:44"6.4 " 12612
HOMER Ivan#65640-49 Male0:23:45"6.4 " 12718
HEWETT Noel#69440-49 Male0:23:48"6.4 " 12819
SHANNON Troy#180Senior Male0:23:49"6.4 " 12967
DAFF Geoff#699Male 50+0:23:52"6.4 " 1309
FISHER Kevin#69840-49 Male0:23:52"6.4 " 13120
O'DONOHUE Mark#70040-49 Male0:23:54"6.4 " 13221
LENNE Heath#148Senior Male0:23:57"6.4 " 13368
BILLINGTON Naomi#453Senior Female0:24:01"6.4 " 13410
NICHOLSON Jimmy#230Senior Male0:24:03"6.4 " 13569
BOURKE Lucy#486Senior Female0:24:06"6.3 " 13611
WILLIAMSON David#224Senior Male0:24:06"6.3 " 13770
EISEN Nat#173Senior Male0:24:11"6.3 " 13871
BLEKIS Daniel#135Senior Male0:24:12"6.3 " 13972
SUTTON Darren#161Senior Male0:24:16"6.3 " 14073
BALDING Rachel#358Senior Female0:24:19"6.3 " 14112
MATTHEWS Aaron#157Senior Male0:24:20"6.3 " 14274
ABLETT Zac#97Senior Male0:24:23"6.3 " 14375
BENDTSEN Katrina#364Junior Female0:24:26"6.3 " 14414
TAYLOR Matilda#452Senior Female0:24:34"6.2 " 14513
FITZCLARENCE Cassidy#94Senior Male0:24:38"6.2 " 14676
HOMER Jack#757Junior Male0:24:38"6.2 " 14713
COLLINS Gael#353Senior Female0:24:42"6.2 " 14814
KOGELMAN Jacob#84Senior Male0:24:49"6.2 " 14977
WEBB Brendan#202Senior Male0:24:52"6.2 " 15078
STANLEY Nathan#80Senior Male0:24:52"6.2 " 15179
MCFEE Andy#98Senior Male0:24:53"6.1 " 15280
GROVES Travis#676Junior Male0:24:53"6.1 " 15314
SULLIVAN Matt#605Junior Male0:24:53"6.1 " 15415
MC DONALD Angus#249Senior Male0:24:54"6.1 " 15581
WHITLA James#60240-49 Male0:24:54"6.1 " 15622
MARSHALL Luke#123Senior Male0:24:55"6.1 " 15782
OWEN Paul#64640-49 Male0:24:55"6.1 " 15823
CAMPBELL Courtney#198Senior Male0:24:59"6.1 " 15983
MURPHY Adam#244Senior Male0:24:59"6.1 " 16084
BELL Ashlee#493Junior Female0:25:00"6.1 " 16115
ANTHONY Max#611Junior Male0:25:01"6.1 " 16216
CUNNINGHAM Emma#436Senior Female0:25:02"6.1 " 16315
STEWART Tia#397Junior Female0:25:02"6.1 " 16416
HARRIS Simon#237Senior Male0:25:04"6.1 " 16585
CHIVERS Luke#33Senior Male0:25:09"6.1 " 16686
PRYOR Anthony#171Senior Male0:25:10"6.1 " 16787
BORN Daniel#44Senior Male0:25:13"6.1 " 16888
RICHARDS Mark#662Junior Male0:25:13"6.1 " 16917
MOORE Hayden#182Senior Male0:25:14"6.1 " 17089
CANN Lara#313Senior Female0:25:20"6.0 " 17116
BOULONNE Stephane#212Senior Female0:25:21"6.0 " 17217
WOODWARD Nick#236Senior Male0:25:22"6.0 " 17390
NICHOLSON Peter#738Male 50+0:25:30"6.0 " 17410
LAMARO Rom#21Senior Male0:25:32"6.0 " 17591
HELLEMA Ben#19Senior Male0:25:33"6.0 " 17692
FLEISNER Paul#629Male 50+0:25:35"6.0 " 17711
FOSTIN Bianca#420Senior Female0:25:36"6.0 " 17818
ELLUL Stephen#73940-49 Male0:25:36"6.0 " 17924
MAIER Adrian#150Senior Male0:25:38"6.0 " 18093
DRISCOLL Melanie#342Senior Female0:25:38"6.0 " 18119
BROOMHALL Dylan#703Junior Male0:25:38"6.0 " 18218
GILL Jack#40Senior Male0:25:43"5.9 " 18394
LUCK Jarrod#14Senior Male0:25:47"5.9 " 18495
CASTWOOD Tim#142Senior Male0:25:48"5.9 " 18596
GOLDIE Tony#76840-49 Male0:25:49"5.9 " 18625
MILLER Kate#467Senior Female0:25:50"5.9 " 18720
HARRIS Raeleigh#478Senior Female0:25:51"5.9 " 18821
LEVERSHA David#630Male 50+0:25:56"5.9 " 18912
CAMERON Jane#440Female 50+0:26:03"5.9 " 1901
MAYES Don#165Senior Male0:26:06"5.9 " 19197
LEA Micahael#147Senior Male0:26:06"5.9 " 19298
HENRY Bobby#259Senior Male0:26:11"5.8 " 19399
ROBERTS Christian#152Senior Male0:26:12"5.8 " 194100
STAFFORD Rachel#47140-49 Female0:26:13"5.8 " 1952
KALKMAN Tim#67Senior Male0:26:14"5.8 " 196101
PEARSON Natalie#404Senior Female0:26:14"5.8 " 19722
CAVILL Chris#115Senior Male0:26:17"5.8 " 198102
MOORE William#20Senior Male0:26:19"5.8 " 199103
MASTERMAN-SMITH Gavin#201Senior Male0:26:22"5.8 " 200104
CROOKS Matt#194Senior Male0:26:23"5.8 " 201105
TOOHEY Zac#41Senior Male0:26:24"5.8 " 202106
GARGAN Bridget#441Senior Female0:26:25"5.8 " 20323
BRIGHT Justin#106Senior Male0:26:26"5.8 " 204107
PARSON Oliver#709Junior Male0:26:27"5.8 " 20519
CURPHEY Tom#239Senior Male0:26:29"5.8 " 206108
CHIVERS Braeden#111Senior Male0:26:33"5.8 " 207109
SHEEDY Anthony#75140-49 Male0:26:33"5.8 " 20826
LONG Matt#170Senior Male0:26:34"5.8 " 209110
MURPHY Gary#1Senior Male0:26:35"5.8 " 210111
BEHRSIN John#735Male 50+0:26:43"5.7 " 21113
WOOD Anthony#164Senior Male0:26:49"5.7 " 212112
YOUNG Lauren#361Senior Female0:26:50"5.7 " 21324
HAYNE Rodney#102Senior Male0:26:51"5.7 " 214113
ARCHIBALD Mark#30Senior Male0:26:53"5.7 " 215114
GUPPY Josh#226Senior Male0:26:54"5.7 " 216115
RINGROSE Paul#628Male 50+0:26:55"5.7 " 21714
TUFF Stephen#68Senior Male0:26:56"5.7 " 218116
MARTIN Brian#728Male 50+0:26:57"5.7 " 21915
RUSSELL Jane#490Senior Female0:26:58"5.7 " 22025
ANTHONY Michael#61040-49 Male0:26:59"5.7 " 22127
WHITE Sarah#331Senior Female0:27:02"5.7 " 22226
ALDERSON Allan#736Male 50+0:27:03"5.7 " 22316
KENNEDY Karina#375Senior Female0:27:05"5.6 " 22427
THWAITES Karl#62240-49 Male0:27:05"5.6 " 22528
WRIGHT Marcus#744Junior Male0:27:05"5.6 " 22620
CARROLL Steven#57Senior Male0:27:06"5.6 " 227117
DODD Jennifer#370Female 50+0:27:08"5.6 " 2282
MALIOS Todd#76340-49 Male0:27:08"5.6 " 22929
COLE Nicholas#14340-49 Male0:27:09"5.6 " 23030
SMITH Josh#163Senior Male0:27:10"5.6 " 231118
MOWLAM Stephen#190Senior Male0:27:11"5.6 " 232119
CANDLER James#66Senior Male0:27:12"5.6 " 233120
SEAMER Jackson#696Junior Male0:27:12"5.6 " 23421
LEA Trevor#626Male 50+0:27:14"5.6 " 23517
O'BRYAN Steven#76Senior Male0:27:15"5.6 " 236121
RORDAN Scott#240Senior Male0:27:16"5.6 " 237122
EMERY Mick#639Male 50+0:27:18"5.6 " 23818
ALEXANDER Greg#145Senior Male0:27:19"5.6 " 239123
INGAMELLS Hannah#417Junior Female0:27:21"5.6 " 24017
TRANTER Andrew#138Senior Male0:27:24"5.6 " 241124
MORGAN Briony#443Senior Female0:27:26"5.6 " 24228
PARSONS Kyle#708Junior Male0:27:26"5.6 " 24322
BARTLETT Lee#25Senior Male0:27:29"5.6 " 244125
HARRIS Michelle#481Senior Female0:27:29"5.6 " 24529
SCOTT Beth#460Senior Female0:27:32"5.6 " 24630
DARRAS Larisa#336Senior Female0:27:33"5.6 " 24731
BROWNE Rebecca#365Senior Female0:27:36"5.5 " 24832
THERIAULT David#625Male 50+0:27:43"5.5 " 24919
SAUNDERS Allan#726Male 50+0:27:44"5.5 " 25020
DE CARLO Pier#631Male 50+0:27:45"5.5 " 25121
PLANT Cassie#474Senior Female0:27:47"5.5 " 25233
BENNETT Rachael#398Junior Female0:27:48"5.5 " 25318
COMERFORD Aaron#218Senior Male0:27:51"5.5 " 254126
TILLEY Derryn#172Senior Male0:27:52"5.5 " 255127
O'CONNELL Michael#132Senior Male0:27:52"5.5 " 256128
POULTON Adam#746Junior Male0:27:57"5.5 " 25723
HARBINSON Yvette#427Senior Female0:28:01"5.5 " 25834
DELGOS Jessie#339Senior Female0:28:03"5.5 " 25935
HALL Ben#183Senior Male0:28:05"5.4 " 260129
NICHOLSON Garry#697Male 50+0:28:06"5.4 " 26122
REDMOND Sean#232Senior Male0:28:08"5.4 " 262130
DEBONDT Dana#419Senior Female0:28:08"5.4 " 26336
LEDDIN Peter#615Male 50+0:28:10"5.4 " 26423
MOHANSY Andrew#184Senior Male0:28:11"5.4 " 265131
GAILBRATIH Lynne#48240-49 Female0:28:13"5.4 " 2663
TAYLOR Shane#737Junior Male0:28:19"5.4 " 26724
GRAHAM Ben#223Senior Male0:28:28"5.4 " 268132
BANISTER Jason#214Senior Male0:28:28"5.4 " 269133
RANDALL Brendan#70640-49 Male0:28:28"5.4 " 27031
WINTLE Paul#197Senior Male0:28:32"5.4 " 271134
SKIDMORE Peter#714Male 50+0:28:32"5.4 " 27224
JONES Paul#641Male 50+0:28:34"5.4 " 27325
WILDISH Rob#71540-49 Male0:28:35"5.4 " 27432
NOLAN Todd#49Senior Male0:28:35"5.4 " 275135
CURTIS Brad#71240-49 Male0:28:36"5.3 " 27633
SHEPPARD Ebony#449Senior Female0:28:37"5.3 " 27737
HUMBERT Cara#366Junior Female0:28:38"5.3 " 27819
MOSELEY Tessa#326Senior Female0:28:41"5.3 " 27938
NEAL William#56Senior Male0:28:42"5.3 " 280136
DAFF Tim#156Senior Male0:28:43"5.3 " 281137
OLDEN Mark#51Senior Male0:28:47"5.3 " 282138
DARKER Sarah#363Senior Female0:28:48"5.3 " 28339
KOOLE Shannon#228Senior Male0:28:49"5.3 " 284139
SCOTT Emma#462Senior Female0:28:52"5.3 " 28540
YOUNG Chris#42Senior Male0:28:52"5.3 " 286140
HELLEMA Daniel#34Senior Male0:29:04"5.3 " 287141
EVERY Louise#320Senior Female0:29:05"5.3 " 28841
BROWN Sean#146Senior Male0:29:07"5.3 " 289142
MARSHALL Sarah#437Senior Female0:29:13"5.2 " 29042
GUPPY Isaac#745Junior Male0:29:14"5.2 " 29125
KENNEDY Lucas#82Senior Male0:29:18"5.2 " 292143
VERNON Beau#247Senior Male0:29:23"5.2 " 293144
DAVIES Bryn#63Senior Male0:29:23"5.2 " 294145
MANNING Simon#65740-49 Male0:29:24"5.2 " 29534
BAXTER Virginia#36740-49 Female0:29:27"5.2 " 2964
WINSTANLEY Benjamin#258Senior Male0:29:27"5.2 " 297146
WIGNALL Alex#129Senior Male0:29:29"5.2 " 298147
STEPHENS Kristy#439Senior Female0:29:29"5.2 " 29943
MAHON Debbi#468Senior Female0:29:30"5.2 " 30044
MORRISON Kerry#495Female 50+0:29:31"5.2 " 3013
BROPHY Clare#350Female 50+0:29:39"5.2 " 3024
JAMES Alycia#492Senior Female0:29:42"5.2 " 30345
TAYLOR James#216Senior Male0:29:47"5.1 " 304148
SUDBURY Eva#328Senior Female0:29:47"5.1 " 30546
MACKENZIE Paul#96Senior Male0:29:49"5.1 " 306149
PEMBERTON Mark#245Senior Male0:29:53"5.1 " 307150
WILSON Matt#196Senior Male0:30:02"5.1 " 308151
MAY Richard#76140-49 Male0:30:02"5.1 " 30935
WEBSTER Ashton#208Senior Male0:30:07"5.1 " 310152
COLLISON Natasha#408Senior Female0:30:11"5.1 " 31147
PARKER Louis#238Senior Male0:30:12"5.1 " 312153
WINSTANLEY James#220Senior Male0:30:16"5.1 " 313154
LYNCH Ashley#254Senior Male0:30:17"5.1 " 314155
CARR Bec#377Senior Female0:30:19"5.0 " 31548
MC NALLY Ed#209Senior Male0:30:21"5.0 " 316156
CREAN Peter#601Male 50+0:30:30"5.0 " 31726
DRYDEN Jack#718Junior Male0:30:38"5.0 " 31826
INGAMELLS Thomas#133Senior Male0:30:39"5.0 " 319157
MATTHEWS Robert#648Male 50+0:30:40"5.0 " 32027
HARRISON Ross#250Senior Male0:30:43"5.0 " 321158
TAGLIAFERRO Aaron#29Senior Male0:30:46"5.0 " 322159
HEDDLES James#159Senior Male0:30:48"5.0 " 323160
O'SHANNESSY Peter#723Male 50+0:30:50"5.0 " 32428
WILLIAMS Phil#617Male 50+0:30:50"5.0 " 32529
MCDONALD Gordon#652Male 50+0:30:53"5.0 " 32630
WILLIAMS Elyssa#405Senior Female0:30:55"4.9 " 32749
SYMES Jake#188Senior Male0:31:06"4.9 " 328161
TOOHEY Joshua#48Senior Male0:31:09"4.9 " 329162
GILL Lindy#348Female 50+0:31:11"4.9 " 3305
MC FEE Jennifer#423Junior Female0:31:12"4.9 " 33120
HIBBLE Jenny#448Female 50+0:31:16"4.9 " 3326
LEVERSHA Lynette#337Female 50+0:31:17"4.9 " 3337
ADAMS Courtney#18Senior Female0:31:18"4.9 " 33450
MC NEIL Brett#227Senior Male0:31:18"4.9 " 335163
CRAIG Mitch#38Senior Male0:31:19"4.9 " 336164
MC MAHON Marcus#204Senior Male0:31:21"4.9 " 337165
TYRRELL Sarah#382Senior Female0:31:25"4.9 " 33851
ZIMMERMAN Kirrily#344Senior Female0:31:27"4.9 " 33952
CARR Vern#87Senior Male0:31:30"4.9 " 340166
STELZER Hermann#692Male 50+0:31:31"4.9 " 34131
DALLINGER Brian#690Male 50+0:31:32"4.9 " 34232
BORN Christian#635Junior Male0:31:34"4.8 " 34327
VAN DER HEYDEN Natalie#315Senior Female0:31:36"4.8 " 34453
LIDSEY Andrew#72540-49 Male0:31:37"4.8 " 34536
SUTHERLAND Michael#75240-49 Male0:31:38"4.8 " 34637
COMMERFORD Peter#758Male 50+0:31:40"4.8 " 34733
MCKENZIE Bridget#39040-49 Female0:31:42"4.8 " 3485
HADLEY Connor#733Junior Male0:31:42"4.8 " 34928
MATE Michael#28Senior Male0:31:51"4.8 " 350167
OATS Nicolas#658Male 50+0:31:56"4.8 " 35134
GOODE Thos#609Male 50+0:31:57"4.8 " 35235
WILLIS Jehi#71Senior Male0:31:59"4.8 " 353168
MUIR Anthony#76240-49 Male0:32:00"4.8 " 35438
ADKINS Susan#36040-49 Female0:32:01"4.8 " 3556
MAHONEY Jacob#219Senior Male0:32:03"4.8 " 356169
KELLY Chris#195Senior Male0:32:06"4.8 " 357170
LLOYD Karen#30740-49 Female0:32:06"4.8 " 3587
CHASTON Pete#724Male 50+0:32:07"4.8 " 35936
SEXTON Andy#103Senior Male0:32:07"4.8 " 360171
BAILEY Annie#346Female 50+0:32:12"4.8 " 3618
THORBURN Tina#387Senior Female0:32:14"4.7 " 36254
LLOYD Greg#60840-49 Male0:32:25"4.7 " 36339
HALL Megan#466Senior Female0:32:26"4.7 " 36455
BORN Tim#63640-49 Male0:32:27"4.7 " 36540
WILLIAMS Ian#66340-49 Male0:32:28"4.7 " 36641
WOODWARD Cloe#496Junior Female0:32:31"4.7 " 36721
WALKER Christine#426Female 50+0:32:33"4.7 " 3689
LIA Ryan#203Senior Male0:32:34"4.7 " 369172
SHEPPARD Sam#186Senior Male0:32:35"4.7 " 370173
KENDALL Gary#65340-49 Male0:32:36"4.7 " 37142
SCOTT Mitch#206Senior Male0:32:41"4.7 " 372174
GILLILAND Paula#351Senior Female0:32:44"4.7 " 37356
HADAWAY Emma#322Senior Female0:32:46"4.7 " 37457
MCKENZIE Paul#113Senior Male0:32:47"4.7 " 375175
SMART Fiona#311Senior Female0:32:49"4.7 " 37658
MOFFATT Hayley#473Senior Female0:32:50"4.7 " 37759
BOND Nicholas#252Senior Male0:32:51"4.7 " 378176
CAIN Greg#769Male 50+0:32:52"4.7 " 37937
BROOKE Jason#193Senior Male0:32:53"4.7 " 380177
GOLDSMITH Alice#392Senior Female0:33:02"4.6 " 38160
BREMNER James#119Senior Male0:33:06"4.6 " 382178
WAKEFIELD Christina#381Senior Female0:33:34"4.6 " 38361
SCHILLACI Jannaha#431Senior Female0:33:37"4.6 " 38462
SCALE Steven#69Senior Male0:33:42"4.5 " 385179
MALONEY Lorna#376Senior Female0:33:43"4.5 " 38663
FLEMING Luke#58Senior Male0:33:48"4.5 " 387180
BOND Jordon#251Senior Male0:33:49"4.5 " 388181
SHAW Melanie#438Junior Female0:33:54"4.5 " 38922
VAUDREY Philip#105Senior Male0:33:56"4.5 " 390182
JOHNSTONE Garry#720Male 50+0:33:56"4.5 " 39138
THWAITES Jack#623Junior Male0:34:01"4.5 " 39229
EGAN Holly#422Junior Female0:34:09"4.5 " 39323
NOLAN Stephen#640Male 50+0:34:18"4.5 " 39439
EMMETT Niki#32940-49 Female0:34:19"4.5 " 3958
DOWNWARD Clint#6Senior Male0:34:20"4.5 " 396183
GREENWOOD Stacey#321Senior Female0:34:21"4.5 " 39764
WARING Colin#65440-49 Male0:34:27"4.4 " 39843
RUSSELL Geoff#22Senior Male0:34:31"4.4 " 399184
CHAPMAN Wayne#215Senior Male0:34:33"4.4 " 400185
CASTLES Matthew#64Senior Male0:34:34"4.4 " 401186
COKER Myles#23Senior Male0:34:35"4.4 " 402187
COUSINS Richard#64440-49 Male0:34:35"4.4 " 40344
DOUGLAS Meaghan#303Senior Female0:34:36"4.4 " 40465
HOLLINS Jenny#30640-49 Female0:34:38"4.4 " 4059
KEOGH Peter#77040-49 Male0:34:41"4.4 " 40645
CROUGH Joseph#50Senior Male0:34:42"4.4 " 407188
CLIFFE Andrew#114Senior Male0:34:45"4.4 " 408189
CRAIG Lucas#54Senior Male0:34:46"4.4 " 409190
DIMITRIOU Scott#128Senior Male0:34:50"4.4 " 410191
TONER Lisa-Maree#463Senior Female0:34:52"4.4 " 41166
VIRTUE Melinda#42540-49 Female0:34:54"4.4 " 41210
ORR Christina#343Senior Female0:34:55"4.4 " 41367
BROPHY Steph#395Senior Female0:35:08"4.4 " 41468
KOGELMAN Russell#83Senior Male0:35:27"4.3 " 415192
CARTER Verena#335Senior Female0:35:29"4.3 " 41669
HAMPSHIRE Guy#176Senior Male0:35:34"4.3 " 417193
MEADE Dion#177Senior Male0:35:34"4.3 " 418194
ADAMS Murray#689Male 50+0:35:43"4.3 " 41940
COOPER Scott#131Senior Male0:35:44"4.3 " 420195
ORSINI Raff#732Male 50+0:35:44"4.3 " 42141
LONG Kirsten#412Senior Female0:35:49"4.3 " 42270
MALONEY Greg#62740-49 Male0:35:54"4.3 " 42346
NOLAN Eliza#357Senior Female0:36:04"4.2 " 42471
LEARY Daniel#189Senior Male0:36:06"4.2 " 425196
NICHOLSON Ron#603Male 50+0:36:07"4.2 " 42642
CUTHBERTSON Wynonna#477Junior Female0:36:11"4.2 " 42724
COCHRANE Brooke#401Junior Female0:36:28"4.2 " 42825
JOHNSTONE Chris#66540-49 Male0:36:33"4.2 " 42947
WEBBER Simone#46940-49 Female0:36:36"4.2 " 43011
SPITERI Maverick#66840-49 Male0:36:43"4.2 " 43148
MOTT Adam#78Senior Male0:36:47"4.2 " 432197
NEWMAN Jad#16Senior Male0:36:52"4.2 " 433198
ANDREOLA Flinders#730Junior Male0:36:58"4.1 " 43430
MALONEY Brett#86Senior Male0:37:24"4.1 " 435199
KUBALE Alex#710Junior Male0:37:27"4.1 " 43631
LEA Edwina#332Junior Female0:37:29"4.1 " 43726
BLACKMAN Julie#317Senior Female0:37:40"4.1 " 43872
CHANDLER Mark#144Senior Male0:37:41"4.1 " 439200
HILL Brendan#253Senior Male0:37:59"4.0 " 440201
EMERY Rebekah#418Senior Female0:38:09"4.0 " 44173
MCGENNISKEN Kerry#372Senior Female0:38:25"4.0 " 44274
MANNING John#187Senior Male0:38:27"4.0 " 443202
CORRIGAN David#217Senior Male0:38:41"4.0 " 444203
REID Annie#461Senior Female0:38:42"4.0 " 44575
WAKEFIELD Steven#112Senior Male0:38:45"3.9 " 446204
MARSHALL Kerri#406Senior Female0:39:03"3.9 " 44776
MCGILL Courtney#388Senior Female0:39:03"3.9 " 44877
ANTHONY Lisa#30940-49 Female0:39:11"3.9 " 44912
HERRINGTON Suzie#34940-49 Female0:39:12"3.9 " 45013
MCCOLL Tim#108Senior Male0:39:25"3.9 " 451205
HARVEY Christine#41340-49 Female0:39:29"3.9 " 45214
O'DONOHUE Lesley#42840-49 Female0:39:41"3.9 " 45315
MOULD Annie#305Senior Female0:40:03"3.8 " 45478
LINOSSI Alessandro#620Male 50+0:40:09"3.8 " 45543
MATSON Sarah#465Senior Female0:40:15"3.8 " 45679
DEVLYN Shane#71640-49 Male0:40:16"3.8 " 45749
STEPHENS Janice#314Female 50+0:40:28"3.8 " 45810
GIBBS Brett#7Senior Male0:40:49"3.7 " 459206
SURACE Bree#455Senior Female0:40:49"3.7 " 46080
MATTHEWS Jacqui#403Senior Female0:41:04"3.7 " 46181
WARD Frank#614Male 50+0:41:15"3.7 " 46244
GARDNER Megan#301Senior Female0:41:27"3.7 " 46382
HENRY Kate#494Senior Female0:41:27"3.7 " 46483
LU Huy#39Senior Male0:41:29"3.7 " 465207
ZUPANOVICH Corey#122Senior Male0:41:44"3.7 " 466208
KOOT John#74040-49 Male0:41:44"3.7 " 46750
MOYLE Nikita#491Senior Female0:41:57"3.6 " 46884
KUBALE Tim#166Senior Male0:42:10"3.6 " 469209
DE HEY Zoe#393Senior Female0:42:20"3.6 " 47085
COMMERFORD Kahli#483Senior Female0:42:23"3.6 " 47186
WILLIS Eddy#485Female 50+0:43:01"3.6 " 47211
BROWN Helen#38340-49 Female0:43:15"3.5 " 47316
HERBERT Michael#75940-49 Male0:43:18"3.5 " 47451
MEALY Scotty#192Senior Male0:44:01"3.5 " 475210
BUSCOMBE Samuel#191Senior Male0:44:11"3.5 " 476211
SAY Nick#92Senior Male0:44:15"3.5 " 477212
BOWKER Colin#62140-49 Male0:44:22"3.4 " 47852
JONES Sean#749Junior Male0:44:49"3.4 " 47932
JONES Mark#75040-49 Male0:44:50"3.4 " 48053
CLEELAND Mike#633Male 50+0:45:03"3.4 " 48145
SMITH Rachel#44740-49 Female0:45:14"3.4 " 48217
EGAN Deb#44640-49 Female0:45:15"3.4 " 48318
TOOHEY Lyn#356Female 50+0:45:17"3.4 " 48412
COSTAGANNA Clara#37440-49 Female0:45:26"3.4 " 48519
SCICLUNA Todd#61Senior Male0:46:03"3.3 " 486213
CLARENCE Elyse#429Senior Female0:46:38"3.3 " 48787
GREENER Simon#155Senior Male0:46:43"3.3 " 488214
OLCZAK Sally-Anne#414Senior Female0:46:52"3.3 " 48988
DYNON Paul#60640-49 Male0:46:56"3.3 " 49054
CURTIS Yarran#713Junior Male0:47:19"3.2 " 49133
HAYNE Sue#371Female 50+0:47:25"3.2 " 49213
MCCLELLAND Laura#368Senior Female0:47:43"3.2 " 49389
BURSTON George#67240-49 Male0:48:15"3.2 " 49455
BRADFORD Laura#379Senior Female0:48:34"3.2 " 49590
COLE Ian#764Male 50+0:48:40"3.1 " 49646
FRASER Jason#151Senior Male0:48:50"3.1 " 497215
BYRNE Grace#488Junior Female0:48:51"3.1 " 49827
ESNOUF John#613Male 50+0:49:04"3.1 " 49947
GREGORY Rhys#256Senior Male0:49:23"3.1 " 500216
O'NEILL Emma#37840-49 Female0:49:50"3.1 " 50120
SPITS Scot#229Senior Male0:50:09"3.1 " 502217
CAMERON Rachael#489Senior Female0:50:31"3.0 " 50391
BASS Shona#338Female 50+0:50:32"3.0 " 50414
MCKENZIE Lyndal#400Senior Female0:51:07"3.0 " 50592
SOKOLOWSKI Anthony#235Senior Male0:52:00"2.9 " 506218
ELLIOT Ann-Marie#39640-49 Female0:52:23"2.9 " 50721
SCHILLACI Michael#154Senior Male0:52:35"2.9 " 508219
FURNISS Simon#61840-49 Male0:54:18"2.8 " 50956
MORRIS Tony#673Male 50+0:56:28"2.7 " 51048
BYRNE Serene#487Junior Female0:56:46"2.7 " 51128
BOURKE Gay#399Female 50+0:57:26"2.7 " 51215
ROPARTZ Claire#430Senior Female0:59:34"2.6 " 51393
HEALY Lynnie#323Female 50+1:02:14"2.5 " 51416
REEK George#691Male 50+1:03:07"2.4 " 51549